sensor_id;sensor_type;location;lat;lon;timestamp;P1;durP1;ratioP1;P2;durP2;ratioP2
52972;SDS011;38837;48.916;2.336;2024-03-02T00:01:42;2.30;;;1.20;;
52972;SDS011;38837;48.916;2.336;2024-03-02T00:03:45;2.72;;;1.42;;
52972;SDS011;38837;48.916;2.336;2024-03-02T00:05:50;2.53;;;1.35;;
52972;SDS011;38837;48.916;2.336;2024-03-02T00:07:56;3.80;;;1.35;;
52972;SDS011;38837;48.916;2.336;2024-03-02T00:09:59;2.58;;;1.10;;
52972;SDS011;38837;48.916;2.336;2024-03-02T00:12:01;2.05;;;1.10;;
52972;SDS011;38837;48.916;2.336;2024-03-02T00:14:04;2.90;;;1.23;;
52972;SDS011;38837;48.916;2.336;2024-03-02T00:16:06;1.58;;;1.00;;
52972;SDS011;38837;48.916;2.336;2024-03-02T00:18:09;1.75;;;1.13;;
52972;SDS011;38837;48.916;2.336;2024-03-02T00:20:13;3.05;;;1.23;;
52972;SDS011;38837;48.916;2.336;2024-03-02T00:22:19;3.28;;;1.30;;
52972;SDS011;38837;48.916;2.336;2024-03-02T00:24:24;1.77;;;1.10;;
52972;SDS011;38837;48.916;2.336;2024-03-02T00:28:37;2.63;;;1.30;;
52972;SDS011;38837;48.916;2.336;2024-03-02T00:30:57;2.40;;;1.20;;
52972;SDS011;38837;48.916;2.336;2024-03-02T00:33:00;2.50;;;1.20;;
52972;SDS011;38837;48.916;2.336;2024-03-02T00:35:04;2.80;;;1.40;;
52972;SDS011;38837;48.916;2.336;2024-03-02T00:37:06;1.35;;;0.80;;
52972;SDS011;38837;48.916;2.336;2024-03-02T00:39:09;1.63;;;1.10;;
52972;SDS011;38837;48.916;2.336;2024-03-02T00:41:27;2.70;;;1.30;;
52972;SDS011;38837;48.916;2.336;2024-03-02T00:43:43;1.70;;;1.00;;
52972;SDS011;38837;48.916;2.336;2024-03-02T00:45:49;1.85;;;1.05;;
52972;SDS011;38837;48.916;2.336;2024-03-02T00:47:51;1.35;;;1.00;;
52972;SDS011;38837;48.916;2.336;2024-03-02T00:49:53;3.30;;;1.20;;
52972;SDS011;38837;48.916;2.336;2024-03-02T00:51:55;2.72;;;1.40;;
52972;SDS011;38837;48.916;2.336;2024-03-02T00:53:58;2.65;;;1.17;;
52972;SDS011;38837;48.916;2.336;2024-03-02T00:56:02;3.50;;;1.30;;
52972;SDS011;38837;48.916;2.336;2024-03-02T00:58:04;2.75;;;1.20;;
52972;SDS011;38837;48.916;2.336;2024-03-02T01:00:06;1.98;;;1.00;;
52972;SDS011;38837;48.916;2.336;2024-03-02T01:02:11;2.10;;;1.20;;
52972;SDS011;38837;48.916;2.336;2024-03-02T01:04:13;1.92;;;1.13;;
52972;SDS011;38837;48.916;2.336;2024-03-02T01:06:15;2.58;;;1.15;;
52972;SDS011;38837;48.916;2.336;2024-03-02T01:08:18;2.80;;;1.30;;
52972;SDS011;38837;48.916;2.336;2024-03-02T01:10:20;3.05;;;1.27;;
52972;SDS011;38837;48.916;2.336;2024-03-02T01:12:22;3.83;;;1.42;;
52972;SDS011;38837;48.916;2.336;2024-03-02T01:14:23;4.35;;;1.40;;
52972;SDS011;38837;48.916;2.336;2024-03-02T01:16:25;3.13;;;0.88;;
52972;SDS011;38837;48.916;2.336;2024-03-02T01:18:27;2.28;;;1.20;;
52972;SDS011;38837;48.916;2.336;2024-03-02T01:20:30;2.88;;;1.42;;
52972;SDS011;38837;48.916;2.336;2024-03-02T01:22:31;2.88;;;1.27;;
52972;SDS011;38837;48.916;2.336;2024-03-02T01:24:33;2.33;;;1.30;;
52972;SDS011;38837;48.916;2.336;2024-03-02T01:26:35;2.50;;;1.30;;
52972;SDS011;38837;48.916;2.336;2024-03-02T01:28:37;2.42;;;1.25;;
52972;SDS011;38837;48.916;2.336;2024-03-02T01:30:39;2.97;;;1.10;;
52972;SDS011;38837;48.916;2.336;2024-03-02T01:32:41;3.00;;;1.30;;
52972;SDS011;38837;48.916;2.336;2024-03-02T01:34:43;2.95;;;1.10;;
52972;SDS011;38837;48.916;2.336;2024-03-02T01:36:45;3.53;;;1.77;;
52972;SDS011;38837;48.916;2.336;2024-03-02T01:38:47;2.97;;;1.42;;
52972;SDS011;38837;48.916;2.336;2024-03-02T01:40:49;3.53;;;1.40;;
52972;SDS011;38837;48.916;2.336;2024-03-02T01:42:51;2.70;;;1.15;;
52972;SDS011;38837;48.916;2.336;2024-03-02T01:44:53;2.72;;;1.15;;
52972;SDS011;38837;48.916;2.336;2024-03-02T01:46:55;4.28;;;1.48;;
52972;SDS011;38837;48.916;2.336;2024-03-02T01:48:57;2.97;;;1.40;;
52972;SDS011;38837;48.916;2.336;2024-03-02T01:50:59;3.83;;;1.20;;
52972;SDS011;38837;48.916;2.336;2024-03-02T01:53:01;4.15;;;1.70;;
52972;SDS011;38837;48.916;2.336;2024-03-02T01:55:05;3.88;;;1.23;;
52972;SDS011;38837;48.916;2.336;2024-03-02T01:57:08;2.22;;;1.10;;
52972;SDS011;38837;48.916;2.336;2024-03-02T01:59:11;3.13;;;1.40;;
52972;SDS011;38837;48.916;2.336;2024-03-02T02:01:14;2.83;;;1.27;;
52972;SDS011;38837;48.916;2.336;2024-03-02T02:03:17;4.40;;;1.40;;
52972;SDS011;38837;48.916;2.336;2024-03-02T02:05:19;3.13;;;1.40;;
52972;SDS011;38837;48.916;2.336;2024-03-02T02:07:21;4.72;;;1.40;;
52972;SDS011;38837;48.916;2.336;2024-03-02T02:09:23;2.70;;;1.13;;
52972;SDS011;38837;48.916;2.336;2024-03-02T02:11:26;2.92;;;1.35;;
52972;SDS011;38837;48.916;2.336;2024-03-02T02:13:27;4.38;;;1.60;;
52972;SDS011;38837;48.916;2.336;2024-03-02T02:15:30;3.55;;;1.35;;
52972;SDS011;38837;48.916;2.336;2024-03-02T02:17:32;3.17;;;1.20;;
52972;SDS011;38837;48.916;2.336;2024-03-02T02:19:34;5.15;;;1.48;;
52972;SDS011;38837;48.916;2.336;2024-03-02T02:21:36;3.22;;;1.48;;
52972;SDS011;38837;48.916;2.336;2024-03-02T02:23:38;1.92;;;1.13;;
52972;SDS011;38837;48.916;2.336;2024-03-02T02:25:39;3.28;;;1.23;;
52972;SDS011;38837;48.916;2.336;2024-03-02T02:27:41;3.38;;;1.42;;
52972;SDS011;38837;48.916;2.336;2024-03-02T02:29:43;5.20;;;1.20;;
52972;SDS011;38837;48.916;2.336;2024-03-02T02:31:45;4.07;;;1.48;;
52972;SDS011;38837;48.916;2.336;2024-03-02T02:33:47;2.38;;;1.40;;
52972;SDS011;38837;48.916;2.336;2024-03-02T02:35:49;2.53;;;1.20;;
52972;SDS011;38837;48.916;2.336;2024-03-02T02:37:51;3.10;;;1.42;;
52972;SDS011;38837;48.916;2.336;2024-03-02T02:39:55;3.47;;;1.58;;
52972;SDS011;38837;48.916;2.336;2024-03-02T02:41:57;3.50;;;1.33;;
52972;SDS011;38837;48.916;2.336;2024-03-02T02:43:59;3.22;;;1.48;;
52972;SDS011;38837;48.916;2.336;2024-03-02T02:46:01;2.40;;;1.35;;
52972;SDS011;38837;48.916;2.336;2024-03-02T02:48:03;5.07;;;1.60;;
52972;SDS011;38837;48.916;2.336;2024-03-02T02:50:06;2.80;;;1.13;;
52972;SDS011;38837;48.916;2.336;2024-03-02T02:52:09;3.70;;;1.50;;
52972;SDS011;38837;48.916;2.336;2024-03-02T02:54:11;2.30;;;1.20;;
52972;SDS011;38837;48.916;2.336;2024-03-02T02:56:12;3.05;;;1.55;;
52972;SDS011;38837;48.916;2.336;2024-03-02T02:58:14;2.28;;;1.30;;
52972;SDS011;38837;48.916;2.336;2024-03-02T03:00:16;4.25;;;1.45;;
52972;SDS011;38837;48.916;2.336;2024-03-02T03:02:21;3.88;;;1.20;;
52972;SDS011;38837;48.916;2.336;2024-03-02T03:04:22;4.78;;;1.50;;
52972;SDS011;38837;48.916;2.336;2024-03-02T03:06:24;6.68;;;1.63;;
52972;SDS011;38837;48.916;2.336;2024-03-02T03:08:26;3.85;;;1.45;;
52972;SDS011;38837;48.916;2.336;2024-03-02T03:10:28;3.95;;;1.45;;
52972;SDS011;38837;48.916;2.336;2024-03-02T03:12:30;3.25;;;1.33;;
52972;SDS011;38837;48.916;2.336;2024-03-02T03:14:35;4.90;;;1.42;;
52972;SDS011;38837;48.916;2.336;2024-03-02T03:16:37;3.38;;;1.42;;
52972;SDS011;38837;48.916;2.336;2024-03-02T03:18:39;5.32;;;1.50;;
52972;SDS011;38837;48.916;2.336;2024-03-02T03:20:41;4.03;;;1.55;;
52972;SDS011;38837;48.916;2.336;2024-03-02T03:22:42;2.80;;;1.20;;
52972;SDS011;38837;48.916;2.336;2024-03-02T03:24:45;3.80;;;1.40;;
52972;SDS011;38837;48.916;2.336;2024-03-02T03:26:47;2.83;;;1.00;;
52972;SDS011;38837;48.916;2.336;2024-03-02T03:28:48;4.10;;;1.70;;
52972;SDS011;38837;48.916;2.336;2024-03-02T03:30:50;1.83;;;1.17;;
52972;SDS011;38837;48.916;2.336;2024-03-02T03:32:52;2.75;;;1.30;;
52972;SDS011;38837;48.916;2.336;2024-03-02T03:34:54;3.92;;;1.42;;
52972;SDS011;38837;48.916;2.336;2024-03-02T03:37:01;4.07;;;1.10;;
52972;SDS011;38837;48.916;2.336;2024-03-02T03:39:04;2.67;;;1.30;;
52972;SDS011;38837;48.916;2.336;2024-03-02T03:41:07;3.30;;;1.20;;
52972;SDS011;38837;48.916;2.336;2024-03-02T03:43:09;5.38;;;1.75;;
52972;SDS011;38837;48.916;2.336;2024-03-02T03:45:11;2.75;;;1.20;;
52972;SDS011;38837;48.916;2.336;2024-03-02T03:47:18;5.22;;;1.58;;
52972;SDS011;38837;48.916;2.336;2024-03-02T03:49:20;4.40;;;1.42;;
52972;SDS011;38837;48.916;2.336;2024-03-02T03:51:22;4.13;;;1.30;;
52972;SDS011;38837;48.916;2.336;2024-03-02T03:53:26;4.18;;;1.40;;
52972;SDS011;38837;48.916;2.336;2024-03-02T03:55:28;3.40;;;1.48;;
52972;SDS011;38837;48.916;2.336;2024-03-02T03:57:30;5.22;;;1.45;;
52972;SDS011;38837;48.916;2.336;2024-03-02T03:59:33;6.85;;;1.30;;
52972;SDS011;38837;48.916;2.336;2024-03-02T04:01:35;2.88;;;1.55;;
52972;SDS011;38837;48.916;2.336;2024-03-02T04:03:38;3.97;;;1.48;;
52972;SDS011;38837;48.916;2.336;2024-03-02T04:05:40;4.22;;;1.40;;
52972;SDS011;38837;48.916;2.336;2024-03-02T04:07:42;3.55;;;1.25;;
52972;SDS011;38837;48.916;2.336;2024-03-02T04:09:49;4.60;;;1.48;;
52972;SDS011;38837;48.916;2.336;2024-03-02T04:11:51;3.80;;;1.48;;
52972;SDS011;38837;48.916;2.336;2024-03-02T04:13:53;2.88;;;1.15;;
52972;SDS011;38837;48.916;2.336;2024-03-02T04:15:59;2.50;;;1.38;;
52972;SDS011;38837;48.916;2.336;2024-03-02T04:18:01;4.10;;;1.02;;
52972;SDS011;38837;48.916;2.336;2024-03-02T04:20:03;4.93;;;1.20;;
52972;SDS011;38837;48.916;2.336;2024-03-02T04:22:08;2.38;;;1.10;;
52972;SDS011;38837;48.916;2.336;2024-03-02T04:24:21;2.47;;;1.20;;
52972;SDS011;38837;48.916;2.336;2024-03-02T04:26:23;3.53;;;1.30;;
52972;SDS011;38837;48.916;2.336;2024-03-02T04:28:26;3.35;;;1.40;;
52972;SDS011;38837;48.916;2.336;2024-03-02T04:30:28;6.07;;;1.40;;
52972;SDS011;38837;48.916;2.336;2024-03-02T04:32:30;3.03;;;1.35;;
52972;SDS011;38837;48.916;2.336;2024-03-02T04:34:32;2.72;;;1.02;;
52972;SDS011;38837;48.916;2.336;2024-03-02T04:36:34;4.18;;;1.33;;
52972;SDS011;38837;48.916;2.336;2024-03-02T04:38:36;3.47;;;1.60;;
52972;SDS011;38837;48.916;2.336;2024-03-02T04:40:39;3.03;;;1.20;;
52972;SDS011;38837;48.916;2.336;2024-03-02T04:42:40;3.38;;;1.13;;
52972;SDS011;38837;48.916;2.336;2024-03-02T04:44:42;3.63;;;1.20;;
52972;SDS011;38837;48.916;2.336;2024-03-02T04:46:44;3.88;;;1.60;;
52972;SDS011;38837;48.916;2.336;2024-03-02T04:48:46;2.25;;;1.10;;
52972;SDS011;38837;48.916;2.336;2024-03-02T04:50:48;3.80;;;1.17;;
52972;SDS011;38837;48.916;2.336;2024-03-02T04:52:50;2.90;;;1.27;;
52972;SDS011;38837;48.916;2.336;2024-03-02T04:54:52;4.65;;;1.77;;
52972;SDS011;38837;48.916;2.336;2024-03-02T04:57:20;2.47;;;1.10;;
52972;SDS011;38837;48.916;2.336;2024-03-02T04:59:22;2.75;;;1.20;;
52972;SDS011;38837;48.916;2.336;2024-03-02T05:01:23;3.97;;;1.38;;
52972;SDS011;38837;48.916;2.336;2024-03-02T05:03:25;4.25;;;1.08;;
52972;SDS011;38837;48.916;2.336;2024-03-02T05:05:27;2.10;;;0.90;;
52972;SDS011;38837;48.916;2.336;2024-03-02T05:07:29;3.00;;;1.10;;
52972;SDS011;38837;48.916;2.336;2024-03-02T05:09:31;5.07;;;1.45;;
52972;SDS011;38837;48.916;2.336;2024-03-02T05:11:33;3.72;;;1.30;;
52972;SDS011;38837;48.916;2.336;2024-03-02T05:13:41;4.97;;;1.38;;
52972;SDS011;38837;48.916;2.336;2024-03-02T05:15:47;2.45;;;1.10;;
52972;SDS011;38837;48.916;2.336;2024-03-02T05:17:49;3.35;;;1.30;;
52972;SDS011;38837;48.916;2.336;2024-03-02T05:19:51;3.85;;;1.40;;
52972;SDS011;38837;48.916;2.336;2024-03-02T05:21:53;3.10;;;1.27;;
52972;SDS011;38837;48.916;2.336;2024-03-02T05:23:59;3.38;;;1.60;;
52972;SDS011;38837;48.916;2.336;2024-03-02T05:26:06;3.00;;;1.25;;
52972;SDS011;38837;48.916;2.336;2024-03-02T05:28:09;4.43;;;1.10;;
52972;SDS011;38837;48.916;2.336;2024-03-02T05:30:11;3.40;;;1.52;;
52972;SDS011;38837;48.916;2.336;2024-03-02T05:32:13;3.55;;;1.15;;
52972;SDS011;38837;48.916;2.336;2024-03-02T05:34:20;3.97;;;1.38;;
52972;SDS011;38837;48.916;2.336;2024-03-02T05:36:26;5.13;;;1.50;;
52972;SDS011;38837;48.916;2.336;2024-03-02T05:38:28;3.03;;;1.10;;
52972;SDS011;38837;48.916;2.336;2024-03-02T05:40:30;3.47;;;1.50;;
52972;SDS011;38837;48.916;2.336;2024-03-02T05:42:32;5.53;;;1.65;;
52972;SDS011;38837;48.916;2.336;2024-03-02T05:44:34;4.72;;;1.30;;
52972;SDS011;38837;48.916;2.336;2024-03-02T05:46:39;3.90;;;1.20;;
52972;SDS011;38837;48.916;2.336;2024-03-02T05:48:41;4.25;;;1.48;;
52972;SDS011;38837;48.916;2.336;2024-03-02T05:50:43;5.28;;;1.48;;
52972;SDS011;38837;48.916;2.336;2024-03-02T05:52:45;2.35;;;1.38;;
52972;SDS011;38837;48.916;2.336;2024-03-02T05:54:48;5.68;;;1.40;;
52972;SDS011;38837;48.916;2.336;2024-03-02T05:56:50;9.48;;;1.90;;
52972;SDS011;38837;48.916;2.336;2024-03-02T05:58:52;3.40;;;1.20;;
52972;SDS011;38837;48.916;2.336;2024-03-02T06:01:09;5.03;;;1.67;;
52972;SDS011;38837;48.916;2.336;2024-03-02T06:03:11;5.45;;;1.30;;
52972;SDS011;38837;48.916;2.336;2024-03-02T06:05:13;2.50;;;1.20;;
52972;SDS011;38837;48.916;2.336;2024-03-02T06:07:16;4.97;;;1.67;;
52972;SDS011;38837;48.916;2.336;2024-03-02T06:09:18;3.45;;;1.23;;
52972;SDS011;38837;48.916;2.336;2024-03-02T06:11:21;3.40;;;1.08;;
52972;SDS011;38837;48.916;2.336;2024-03-02T06:13:23;3.22;;;1.30;;
52972;SDS011;38837;48.916;2.336;2024-03-02T06:15:27;4.95;;;1.33;;
52972;SDS011;38837;48.916;2.336;2024-03-02T06:17:29;4.93;;;1.50;;
52972;SDS011;38837;48.916;2.336;2024-03-02T06:19:31;3.75;;;1.65;;
52972;SDS011;38837;48.916;2.336;2024-03-02T06:21:33;3.20;;;1.70;;
52972;SDS011;38837;48.916;2.336;2024-03-02T06:23:35;2.92;;;1.10;;
52972;SDS011;38837;48.916;2.336;2024-03-02T06:25:37;3.40;;;1.52;;
52972;SDS011;38837;48.916;2.336;2024-03-02T06:27:39;3.38;;;1.23;;
52972;SDS011;38837;48.916;2.336;2024-03-02T06:29:40;4.93;;;1.73;;
52972;SDS011;38837;48.916;2.336;2024-03-02T06:31:43;3.35;;;1.27;;
52972;SDS011;38837;48.916;2.336;2024-03-02T06:33:45;3.67;;;1.20;;
52972;SDS011;38837;48.916;2.336;2024-03-02T06:35:47;3.75;;;1.50;;
52972;SDS011;38837;48.916;2.336;2024-03-02T06:37:50;6.57;;;1.33;;
52972;SDS011;38837;48.916;2.336;2024-03-02T06:39:52;4.13;;;1.35;;
52972;SDS011;38837;48.916;2.336;2024-03-02T06:41:54;4.63;;;1.63;;
52972;SDS011;38837;48.916;2.336;2024-03-02T06:43:55;2.72;;;1.10;;
52972;SDS011;38837;48.916;2.336;2024-03-02T06:46:01;4.35;;;1.70;;
52972;SDS011;38837;48.916;2.336;2024-03-02T06:48:04;3.50;;;1.55;;
52972;SDS011;38837;48.916;2.336;2024-03-02T06:50:06;4.80;;;1.50;;
52972;SDS011;38837;48.916;2.336;2024-03-02T06:52:08;4.70;;;1.50;;
52972;SDS011;38837;48.916;2.336;2024-03-02T06:54:10;3.33;;;1.30;;
52972;SDS011;38837;48.916;2.336;2024-03-02T06:56:12;4.90;;;1.55;;
52972;SDS011;38837;48.916;2.336;2024-03-02T06:58:14;3.40;;;1.45;;
52972;SDS011;38837;48.916;2.336;2024-03-02T07:00:17;3.30;;;1.42;;
52972;SDS011;38837;48.916;2.336;2024-03-02T07:02:19;2.92;;;1.45;;
52972;SDS011;38837;48.916;2.336;2024-03-02T07:04:21;3.15;;;1.35;;
52972;SDS011;38837;48.916;2.336;2024-03-02T07:06:23;5.85;;;1.88;;
52972;SDS011;38837;48.916;2.336;2024-03-02T07:08:26;6.07;;;2.28;;
52972;SDS011;38837;48.916;2.336;2024-03-02T07:10:28;4.65;;;1.40;;
52972;SDS011;38837;48.916;2.336;2024-03-02T07:12:30;5.65;;;1.35;;
52972;SDS011;38837;48.916;2.336;2024-03-02T07:14:32;3.30;;;1.73;;
52972;SDS011;38837;48.916;2.336;2024-03-02T07:16:53;3.30;;;1.42;;
52972;SDS011;38837;48.916;2.336;2024-03-02T07:18:56;3.58;;;1.35;;
52972;SDS011;38837;48.916;2.336;2024-03-02T07:20:58;4.45;;;1.65;;
52972;SDS011;38837;48.916;2.336;2024-03-02T07:23:02;4.90;;;1.60;;
52972;SDS011;38837;48.916;2.336;2024-03-02T07:25:04;3.55;;;1.20;;
52972;SDS011;38837;48.916;2.336;2024-03-02T07:27:09;3.78;;;1.42;;
52972;SDS011;38837;48.916;2.336;2024-03-02T07:29:11;3.75;;;1.40;;
52972;SDS011;38837;48.916;2.336;2024-03-02T07:31:13;3.85;;;1.52;;
52972;SDS011;38837;48.916;2.336;2024-03-02T07:33:15;4.40;;;1.80;;
52972;SDS011;38837;48.916;2.336;2024-03-02T07:35:18;3.22;;;1.42;;
52972;SDS011;38837;48.916;2.336;2024-03-02T07:37:20;4.55;;;1.60;;
52972;SDS011;38837;48.916;2.336;2024-03-02T07:39:22;3.55;;;1.40;;
52972;SDS011;38837;48.916;2.336;2024-03-02T07:41:24;7.15;;;1.67;;
52972;SDS011;38837;48.916;2.336;2024-03-02T07:43:26;3.38;;;1.30;;
52972;SDS011;38837;48.916;2.336;2024-03-02T07:45:28;2.75;;;1.15;;
52972;SDS011;38837;48.916;2.336;2024-03-02T07:47:30;3.00;;;1.40;;
52972;SDS011;38837;48.916;2.336;2024-03-02T07:49:32;3.15;;;1.63;;
52972;SDS011;38837;48.916;2.336;2024-03-02T07:51:34;4.25;;;1.33;;
52972;SDS011;38837;48.916;2.336;2024-03-02T07:53:36;5.63;;;1.48;;
52972;SDS011;38837;48.916;2.336;2024-03-02T07:55:38;4.35;;;1.60;;
52972;SDS011;38837;48.916;2.336;2024-03-02T07:57:40;2.92;;;1.60;;
52972;SDS011;38837;48.916;2.336;2024-03-02T07:59:42;3.08;;;1.50;;
52972;SDS011;38837;48.916;2.336;2024-03-02T08:01:44;2.85;;;1.10;;
52972;SDS011;38837;48.916;2.336;2024-03-02T08:03:46;6.03;;;1.70;;
52972;SDS011;38837;48.916;2.336;2024-03-02T08:05:52;4.10;;;1.27;;
52972;SDS011;38837;48.916;2.336;2024-03-02T08:07:54;4.95;;;1.65;;
52972;SDS011;38837;48.916;2.336;2024-03-02T08:09:56;3.90;;;1.25;;
52972;SDS011;38837;48.916;2.336;2024-03-02T08:11:58;5.93;;;1.70;;
52972;SDS011;38837;48.916;2.336;2024-03-02T08:13:59;4.50;;;1.52;;
52972;SDS011;38837;48.916;2.336;2024-03-02T08:16:01;3.08;;;1.42;;
52972;SDS011;38837;48.916;2.336;2024-03-02T08:18:04;4.27;;;1.67;;
52972;SDS011;38837;48.916;2.336;2024-03-02T08:20:07;3.63;;;1.48;;
52972;SDS011;38837;48.916;2.336;2024-03-02T08:22:09;2.72;;;1.45;;
52972;SDS011;38837;48.916;2.336;2024-03-02T08:24:11;4.07;;;1.27;;
52972;SDS011;38837;48.916;2.336;2024-03-02T08:26:13;6.45;;;1.42;;
52972;SDS011;38837;48.916;2.336;2024-03-02T08:28:15;5.13;;;1.33;;
52972;SDS011;38837;48.916;2.336;2024-03-02T08:30:17;3.42;;;1.17;;
52972;SDS011;38837;48.916;2.336;2024-03-02T08:32:19;2.50;;;1.25;;
52972;SDS011;38837;48.916;2.336;2024-03-02T08:34:21;4.30;;;1.70;;
52972;SDS011;38837;48.916;2.336;2024-03-02T08:36:23;5.78;;;1.70;;
52972;SDS011;38837;48.916;2.336;2024-03-02T08:38:25;4.55;;;1.20;;
52972;SDS011;38837;48.916;2.336;2024-03-02T08:40:27;5.63;;;1.40;;
52972;SDS011;38837;48.916;2.336;2024-03-02T08:42:29;3.67;;;1.17;;
52972;SDS011;38837;48.916;2.336;2024-03-02T08:44:31;3.85;;;1.52;;
52972;SDS011;38837;48.916;2.336;2024-03-02T08:46:34;3.25;;;1.38;;
52972;SDS011;38837;48.916;2.336;2024-03-02T08:48:36;3.42;;;1.10;;
52972;SDS011;38837;48.916;2.336;2024-03-02T08:50:38;2.15;;;1.42;;
52972;SDS011;38837;48.916;2.336;2024-03-02T08:52:40;4.60;;;1.50;;
52972;SDS011;38837;48.916;2.336;2024-03-02T08:54:41;7.90;;;2.10;;
52972;SDS011;38837;48.916;2.336;2024-03-02T08:56:43;28.38;;;3.10;;
52972;SDS011;38837;48.916;2.336;2024-03-02T08:58:45;23.10;;;3.03;;
52972;SDS011;38837;48.916;2.336;2024-03-02T09:00:47;21.45;;;2.45;;
52972;SDS011;38837;48.916;2.336;2024-03-02T09:02:49;13.15;;;2.20;;
52972;SDS011;38837;48.916;2.336;2024-03-02T09:04:51;14.60;;;2.40;;
52972;SDS011;38837;48.916;2.336;2024-03-02T09:06:53;7.32;;;2.10;;
52972;SDS011;38837;48.916;2.336;2024-03-02T09:08:55;10.43;;;2.25;;
52972;SDS011;38837;48.916;2.336;2024-03-02T09:10:57;18.27;;;2.97;;
52972;SDS011;38837;48.916;2.336;2024-03-02T09:13:00;12.25;;;2.15;;
52972;SDS011;38837;48.916;2.336;2024-03-02T09:15:02;9.90;;;2.45;;
52972;SDS011;38837;48.916;2.336;2024-03-02T09:17:05;18.60;;;2.60;;
52972;SDS011;38837;48.916;2.336;2024-03-02T09:19:06;8.73;;;2.47;;
52972;SDS011;38837;48.916;2.336;2024-03-02T09:21:08;10.27;;;2.75;;
52972;SDS011;38837;48.916;2.336;2024-03-02T09:23:11;9.32;;;2.00;;
52972;SDS011;38837;48.916;2.336;2024-03-02T09:25:13;8.73;;;2.53;;
52972;SDS011;38837;48.916;2.336;2024-03-02T09:27:16;8.20;;;1.77;;
52972;SDS011;38837;48.916;2.336;2024-03-02T09:29:17;7.88;;;2.33;;
52972;SDS011;38837;48.916;2.336;2024-03-02T09:33:23;10.85;;;2.40;;
52972;SDS011;38837;48.916;2.336;2024-03-02T09:35:25;7.47;;;1.83;;
52972;SDS011;38837;48.916;2.336;2024-03-02T09:37:27;11.43;;;1.92;;
52972;SDS011;38837;48.916;2.336;2024-03-02T09:39:30;11.68;;;2.38;;
52972;SDS011;38837;48.916;2.336;2024-03-02T09:41:32;8.07;;;2.10;;
52972;SDS011;38837;48.916;2.336;2024-03-02T09:43:34;10.15;;;2.58;;
52972;SDS011;38837;48.916;2.336;2024-03-02T09:45:36;12.02;;;1.88;;
52972;SDS011;38837;48.916;2.336;2024-03-02T09:47:39;12.35;;;2.03;;
52972;SDS011;38837;48.916;2.336;2024-03-02T09:49:41;9.05;;;1.58;;
52972;SDS011;38837;48.916;2.336;2024-03-02T09:51:49;9.98;;;1.90;;
52972;SDS011;38837;48.916;2.336;2024-03-02T09:53:51;3.88;;;1.42;;
52972;SDS011;38837;48.916;2.336;2024-03-02T09:55:58;6.15;;;2.00;;
52972;SDS011;38837;48.916;2.336;2024-03-02T09:58:01;7.80;;;1.70;;
52972;SDS011;38837;48.916;2.336;2024-03-02T10:00:04;5.85;;;1.95;;
52972;SDS011;38837;48.916;2.336;2024-03-02T10:02:07;10.60;;;2.50;;
52972;SDS011;38837;48.916;2.336;2024-03-02T10:04:09;7.47;;;1.50;;
52972;SDS011;38837;48.916;2.336;2024-03-02T10:06:20;8.55;;;2.20;;
52972;SDS011;38837;48.916;2.336;2024-03-02T10:08:23;7.97;;;2.15;;
52972;SDS011;38837;48.916;2.336;2024-03-02T10:10:26;7.80;;;1.75;;
52972;SDS011;38837;48.916;2.336;2024-03-02T10:12:41;10.38;;;2.35;;
52972;SDS011;38837;48.916;2.336;2024-03-02T10:14:43;11.75;;;2.45;;
52972;SDS011;38837;48.916;2.336;2024-03-02T10:16:46;7.00;;;2.25;;
52972;SDS011;38837;48.916;2.336;2024-03-02T10:18:48;10.38;;;2.25;;
52972;SDS011;38837;48.916;2.336;2024-03-02T10:20:50;8.90;;;2.20;;
52972;SDS011;38837;48.916;2.336;2024-03-02T10:22:52;12.30;;;2.13;;
52972;SDS011;38837;48.916;2.336;2024-03-02T10:24:54;6.40;;;1.80;;
52972;SDS011;38837;48.916;2.336;2024-03-02T10:26:59;8.10;;;2.10;;
52972;SDS011;38837;48.916;2.336;2024-03-02T10:29:01;7.47;;;2.38;;
52972;SDS011;38837;48.916;2.336;2024-03-02T10:31:03;13.55;;;1.90;;
52972;SDS011;38837;48.916;2.336;2024-03-02T10:33:08;9.32;;;2.60;;
52972;SDS011;38837;48.916;2.336;2024-03-02T10:35:10;8.02;;;2.22;;
52972;SDS011;38837;48.916;2.336;2024-03-02T10:37:12;10.23;;;2.22;;
52972;SDS011;38837;48.916;2.336;2024-03-02T10:39:15;14.82;;;3.10;;
52972;SDS011;38837;48.916;2.336;2024-03-02T10:41:17;6.55;;;2.35;;
52972;SDS011;38837;48.916;2.336;2024-03-02T10:43:20;8.63;;;1.98;;
52972;SDS011;38837;48.916;2.336;2024-03-02T10:45:22;9.60;;;2.58;;
52972;SDS011;38837;48.916;2.336;2024-03-02T10:47:26;10.50;;;2.10;;
52972;SDS011;38837;48.916;2.336;2024-03-02T10:49:30;9.55;;;2.45;;
52972;SDS011;38837;48.916;2.336;2024-03-02T10:51:33;11.68;;;2.67;;
52972;SDS011;38837;48.916;2.336;2024-03-02T10:53:37;13.55;;;2.42;;
52972;SDS011;38837;48.916;2.336;2024-03-02T10:55:39;11.63;;;2.08;;
52972;SDS011;38837;48.916;2.336;2024-03-02T10:57:42;20.85;;;3.05;;
52972;SDS011;38837;48.916;2.336;2024-03-02T10:59:57;36.60;;;3.63;;
52972;SDS011;38837;48.916;2.336;2024-03-02T11:02:04;42.45;;;4.63;;
52972;SDS011;38837;48.916;2.336;2024-03-02T11:04:09;28.55;;;4.38;;
52972;SDS011;38837;48.916;2.336;2024-03-02T11:06:16;23.85;;;3.55;;
52972;SDS011;38837;48.916;2.336;2024-03-02T11:08:19;20.70;;;3.72;;
52972;SDS011;38837;48.916;2.336;2024-03-02T11:10:24;16.90;;;2.60;;
52972;SDS011;38837;48.916;2.336;2024-03-02T11:14:57;15.45;;;2.38;;
52972;SDS011;38837;48.916;2.336;2024-03-02T11:17:01;14.57;;;2.35;;
52972;SDS011;38837;48.916;2.336;2024-03-02T11:19:05;9.88;;;2.38;;
52972;SDS011;38837;48.916;2.336;2024-03-02T11:21:18;10.70;;;2.38;;
52972;SDS011;38837;48.916;2.336;2024-03-02T11:23:21;7.20;;;2.00;;
52972;SDS011;38837;48.916;2.336;2024-03-02T11:25:36;7.68;;;2.53;;
52972;SDS011;38837;48.916;2.336;2024-03-02T11:29:48;6.93;;;2.38;;
52972;SDS011;38837;48.916;2.336;2024-03-02T11:31:59;17.27;;;2.67;;
52972;SDS011;38837;48.916;2.336;2024-03-02T11:34:18;23.42;;;2.80;;
52972;SDS011;38837;48.916;2.336;2024-03-02T11:36:40;14.10;;;2.20;;
52972;SDS011;38837;48.916;2.336;2024-03-02T11:38:43;20.92;;;2.33;;
52972;SDS011;38837;48.916;2.336;2024-03-02T11:40:47;7.65;;;1.95;;
52972;SDS011;38837;48.916;2.336;2024-03-02T11:42:49;11.38;;;2.65;;
52972;SDS011;38837;48.916;2.336;2024-03-02T11:44:50;13.73;;;2.35;;
52972;SDS011;38837;48.916;2.336;2024-03-02T11:46:57;9.20;;;2.17;;
52972;SDS011;38837;48.916;2.336;2024-03-02T11:49:00;7.43;;;1.95;;
52972;SDS011;38837;48.916;2.336;2024-03-02T11:51:02;9.07;;;2.28;;
52972;SDS011;38837;48.916;2.336;2024-03-02T11:53:05;15.00;;;2.08;;
52972;SDS011;38837;48.916;2.336;2024-03-02T11:55:08;8.07;;;2.40;;
52972;SDS011;38837;48.916;2.336;2024-03-02T11:57:13;10.48;;;1.85;;
52972;SDS011;38837;48.916;2.336;2024-03-02T11:59:24;9.82;;;1.90;;
52972;SDS011;38837;48.916;2.336;2024-03-02T12:01:27;7.45;;;1.70;;
52972;SDS011;38837;48.916;2.336;2024-03-02T12:03:30;7.60;;;1.70;;
52972;SDS011;38837;48.916;2.336;2024-03-02T12:05:35;9.02;;;1.50;;
52972;SDS011;38837;48.916;2.336;2024-03-02T12:07:37;12.80;;;1.70;;
52972;SDS011;38837;48.916;2.336;2024-03-02T12:09:40;8.95;;;1.50;;
52972;SDS011;38837;48.916;2.336;2024-03-02T12:11:42;10.40;;;1.48;;
52972;SDS011;38837;48.916;2.336;2024-03-02T12:13:51;9.18;;;1.60;;
52972;SDS011;38837;48.916;2.336;2024-03-02T12:15:56;3.65;;;1.33;;
52972;SDS011;38837;48.916;2.336;2024-03-02T12:17:58;8.25;;;1.50;;
52972;SDS011;38837;48.916;2.336;2024-03-02T12:22:05;4.03;;;0.90;;
52972;SDS011;38837;48.916;2.336;2024-03-02T12:24:07;6.72;;;1.58;;
52972;SDS011;38837;48.916;2.336;2024-03-02T12:26:09;5.85;;;1.67;;
52972;SDS011;38837;48.916;2.336;2024-03-02T12:28:11;2.22;;;1.20;;
52972;SDS011;38837;48.916;2.336;2024-03-02T12:30:13;2.03;;;1.05;;
52972;SDS011;38837;48.916;2.336;2024-03-02T12:32:16;6.22;;;1.35;;